sensor_id;sensor_type;location;lat;lon;timestamp;pressure;altitude;pressure_sealevel;temperature;humidity
85066;BME280;75401;52.588;13.224;2024-02-26T00:01:10;100171.53;;;5.12;70.58
85066;BME280;75401;52.588;13.224;2024-02-26T00:03:35;100163.81;;;5.09;70.92
85066;BME280;75401;52.588;13.224;2024-02-26T00:06:01;100165.78;;;5.07;70.79
85066;BME280;75401;52.588;13.224;2024-02-26T00:08:26;100162.41;;;5.05;70.99
85066;BME280;75401;52.588;13.224;2024-02-26T00:10:53;100158.53;;;5.09;70.49
85066;BME280;75401;52.588;13.224;2024-02-26T00:13:18;100161.06;;;5.11;70.82
85066;BME280;75401;52.588;13.224;2024-02-26T00:15:44;100155.03;;;5.08;70.62
85066;BME280;75401;52.588;13.224;2024-02-26T00:18:09;100155.19;;;5.07;70.75
85066;BME280;75401;52.588;13.224;2024-02-26T00:20:34;100147.38;;;5.05;70.61
85066;BME280;75401;52.588;13.224;2024-02-26T00:23:00;100150.13;;;5.04;70.82
85066;BME280;75401;52.588;13.224;2024-02-26T00:25:25;100143.28;;;5.01;70.39
85066;BME280;75401;52.588;13.224;2024-02-26T00:27:52;100144.53;;;4.97;70.55
85066;BME280;75401;52.588;13.224;2024-02-26T00:30:17;100144.63;;;4.96;70.46
85066;BME280;75401;52.588;13.224;2024-02-26T00:32:42;100133.34;;;4.94;70.65
85066;BME280;75401;52.588;13.224;2024-02-26T00:35:08;100145.28;;;4.88;70.78
85066;BME280;75401;52.588;13.224;2024-02-26T00:37:33;100140.13;;;4.87;70.65
85066;BME280;75401;52.588;13.224;2024-02-26T00:39:59;100140.28;;;4.85;71.01
85066;BME280;75401;52.588;13.224;2024-02-26T00:42:24;100138.72;;;4.83;70.95
85066;BME280;75401;52.588;13.224;2024-02-26T00:44:51;100133.69;;;4.80;71.02
85066;BME280;75401;52.588;13.224;2024-02-26T00:47:16;100130.28;;;4.78;71.12
85066;BME280;75401;52.588;13.224;2024-02-26T00:49:41;100131.38;;;4.75;71.20
85066;BME280;75401;52.588;13.224;2024-02-26T00:52:07;100140.31;;;4.74;70.79
85066;BME280;75401;52.588;13.224;2024-02-26T00:54:32;100137.09;;;4.71;70.59
85066;BME280;75401;52.588;13.224;2024-02-26T00:56:58;100140.97;;;4.67;70.98
85066;BME280;75401;52.588;13.224;2024-02-26T00:59:23;100136.78;;;4.64;70.60
85066;BME280;75401;52.588;13.224;2024-02-26T01:01:50;100132.56;;;4.62;70.98
85066;BME280;75401;52.588;13.224;2024-02-26T01:04:15;100133.53;;;4.61;70.94
85066;BME280;75401;52.588;13.224;2024-02-26T01:06:40;100134.78;;;4.57;71.17
85066;BME280;75401;52.588;13.224;2024-02-26T01:09:06;100134.88;;;4.55;71.36
85066;BME280;75401;52.588;13.224;2024-02-26T01:11:31;100128.88;;;4.53;71.63
85066;BME280;75401;52.588;13.224;2024-02-26T01:13:57;100126.75;;;4.47;71.16
85066;BME280;75401;52.588;13.224;2024-02-26T01:16:22;100135.53;;;4.47;71.23
85066;BME280;75401;52.588;13.224;2024-02-26T01:18:49;100129.41;;;4.47;71.37
85066;BME280;75401;52.588;13.224;2024-02-26T01:21:14;100109.47;;;4.32;71.12
85066;BME280;75401;52.588;13.224;2024-02-26T01:23:39;100124.47;;;4.42;71.01
85066;BME280;75401;52.588;13.224;2024-02-26T01:26:05;100122.06;;;4.39;71.09
85066;BME280;75401;52.588;13.224;2024-02-26T01:28:31;100124.25;;;4.34;71.14
85066;BME280;75401;52.588;13.224;2024-02-26T01:30:56;100136.53;;;4.35;71.11
85066;BME280;75401;52.588;13.224;2024-02-26T01:33:22;100133.06;;;4.35;71.22
85066;BME280;75401;52.588;13.224;2024-02-26T01:35:48;100133.06;;;4.35;70.88
85066;BME280;75401;52.588;13.224;2024-02-26T01:38:13;100134.28;;;4.31;71.12
85066;BME280;75401;52.588;13.224;2024-02-26T01:40:39;100123.09;;;4.27;71.18
85066;BME280;75401;52.588;13.224;2024-02-26T01:43:04;100129.63;;;4.23;71.49
85066;BME280;75401;52.588;13.224;2024-02-26T01:45:29;100129.47;;;4.25;71.22
85066;BME280;75401;52.588;13.224;2024-02-26T01:47:55;100121.78;;;4.22;71.45
85066;BME280;75401;52.588;13.224;2024-02-26T01:50:22;100126.97;;;4.23;71.84
85066;BME280;75401;52.588;13.224;2024-02-26T01:52:50;100113.84;;;4.22;72.13
85066;BME280;75401;52.588;13.224;2024-02-26T01:55:16;100116.78;;;4.19;71.78
85066;BME280;75401;52.588;13.224;2024-02-26T01:57:44;100122.88;;;4.19;71.97
85066;BME280;75401;52.588;13.224;2024-02-26T02:00:11;100123.72;;;4.20;71.94
85066;BME280;75401;52.588;13.224;2024-02-26T02:02:37;100135.16;;;4.20;71.79
85066;BME280;75401;52.588;13.224;2024-02-26T02:05:04;100130.97;;;4.18;72.16
85066;BME280;75401;52.588;13.224;2024-02-26T02:07:30;100124.81;;;4.17;72.36
85066;BME280;75401;52.588;13.224;2024-02-26T02:09:58;100114.63;;;4.13;72.41
85066;BME280;75401;52.588;13.224;2024-02-26T02:12:23;100123.88;;;4.18;72.48
85066;BME280;75401;52.588;13.224;2024-02-26T02:14:49;100113.66;;;4.14;72.68
85066;BME280;75401;52.588;13.224;2024-02-26T02:17:14;100121.72;;;4.12;73.08
85066;BME280;75401;52.588;13.224;2024-02-26T02:19:40;100119.78;;;4.14;72.45
85066;BME280;75401;52.588;13.224;2024-02-26T02:22:06;100132.75;;;4.17;72.21
85066;BME280;75401;52.588;13.224;2024-02-26T02:24:32;100116.88;;;4.17;72.22
85066;BME280;75401;52.588;13.224;2024-02-26T02:26:57;100119.78;;;4.14;72.36
85066;BME280;75401;52.588;13.224;2024-02-26T02:29:23;100118.50;;;4.09;72.48
85066;BME280;75401;52.588;13.224;2024-02-26T02:31:49;100127.00;;;4.12;72.33
85066;BME280;75401;52.588;13.224;2024-02-26T02:34:14;100125.34;;;4.11;72.33
85066;BME280;75401;52.588;13.224;2024-02-26T02:36:48;100125.44;;;4.10;72.33
85066;BME280;75401;52.588;13.224;2024-02-26T02:39:16;100122.25;;;4.06;72.49
85066;BME280;75401;52.588;13.224;2024-02-26T02:41:42;100123.06;;;4.07;72.11
85066;BME280;75401;52.588;13.224;2024-02-26T02:44:07;100105.69;;;3.93;72.34
85066;BME280;75401;52.588;13.224;2024-02-26T02:46:33;100126.69;;;4.06;72.13
85066;BME280;75401;52.588;13.224;2024-02-26T02:48:58;100109.97;;;3.94;72.66
85066;BME280;75401;52.588;13.224;2024-02-26T02:51:24;100121.63;;;4.03;72.15
85066;BME280;75401;52.588;13.224;2024-02-26T02:53:49;100126.22;;;4.01;72.21
85066;BME280;75401;52.588;13.224;2024-02-26T02:56:16;100108.81;;;3.87;72.24
85066;BME280;75401;52.588;13.224;2024-02-26T02:58:41;100123.81;;;3.98;72.12
85066;BME280;75401;52.588;13.224;2024-02-26T03:01:06;100122.97;;;3.97;72.08
85066;BME280;75401;52.588;13.224;2024-02-26T03:03:32;100122.25;;;3.95;72.09
85066;BME280;75401;52.588;13.224;2024-02-26T03:05:57;100123.34;;;3.93;72.37
85066;BME280;75401;52.588;13.224;2024-02-26T03:08:23;100131.38;;;3.91;72.16
85066;BME280;75401;52.588;13.224;2024-02-26T03:10:49;100135.03;;;3.90;72.29
85066;BME280;75401;52.588;13.224;2024-02-26T03:13:16;100133.56;;;3.86;72.25
85066;BME280;75401;52.588;13.224;2024-02-26T03:15:41;100129.25;;;3.85;72.04
85066;BME280;75401;52.588;13.224;2024-02-26T03:18:07;100130.34;;;3.83;72.64
85066;BME280;75401;52.588;13.224;2024-02-26T03:20:32;100140.22;;;3.80;72.18
85066;BME280;75401;52.588;13.224;2024-02-26T03:22:57;100136.84;;;3.78;72.60
85066;BME280;75401;52.588;13.224;2024-02-26T03:25:23;100137.81;;;3.77;72.60
85066;BME280;75401;52.588;13.224;2024-02-26T03:27:48;100137.91;;;3.76;72.38
85066;BME280;75401;52.588;13.224;2024-02-26T03:30:15;100132.78;;;3.74;72.56
85066;BME280;75401;52.588;13.224;2024-02-26T03:32:41;100131.06;;;3.73;72.62
85066;BME280;75401;52.588;13.224;2024-02-26T03:35:06;100126.78;;;3.72;72.66
85066;BME280;75401;52.588;13.224;2024-02-26T03:37:32;100125.06;;;3.71;72.78
85066;BME280;75401;52.588;13.224;2024-02-26T03:39:57;100123.28;;;3.72;73.20
85066;BME280;75401;52.588;13.224;2024-02-26T03:42:22;100125.91;;;3.72;73.20
85066;BME280;75401;52.588;13.224;2024-02-26T03:44:48;100126.88;;;3.71;73.58
85066;BME280;75401;52.588;13.224;2024-02-26T03:47:14;100134.69;;;3.72;73.44
85066;BME280;75401;52.588;13.224;2024-02-26T03:49:40;100142.50;;;3.74;73.37
85066;BME280;75401;52.588;13.224;2024-02-26T03:52:05;100138.19;;;3.73;73.40
85066;BME280;75401;52.588;13.224;2024-02-26T03:54:30;100151.41;;;3.73;73.50
85066;BME280;75401;52.588;13.224;2024-02-26T03:56:55;100143.47;;;3.73;73.11
85066;BME280;75401;52.588;13.224;2024-02-26T03:59:21;100151.41;;;3.73;73.26
85066;BME280;75401;52.588;13.224;2024-02-26T04:01:46;100152.22;;;3.73;73.63
85066;BME280;75401;52.588;13.224;2024-02-26T04:04:13;100152.22;;;3.73;73.65
85066;BME280;75401;52.588;13.224;2024-02-26T04:06:38;100153.94;;;3.74;73.54
85066;BME280;75401;52.588;13.224;2024-02-26T04:09:04;100159.22;;;3.74;73.78
85066;BME280;75401;52.588;13.224;2024-02-26T04:11:29;100155.72;;;3.74;73.81
85066;BME280;75401;52.588;13.224;2024-02-26T04:13:54;100157.53;;;3.73;73.97
85066;BME280;75401;52.588;13.224;2024-02-26T04:16:19;100152.97;;;3.75;73.87
85066;BME280;75401;52.588;13.224;2024-02-26T04:18:45;100163.41;;;3.77;74.13
85066;BME280;75401;52.588;13.224;2024-02-26T04:21:11;100164.97;;;3.79;74.21
85066;BME280;75401;52.588;13.224;2024-02-26T04:23:37;100156.19;;;3.79;74.21
85066;BME280;75401;52.588;13.224;2024-02-26T04:26:02;100168.47;;;3.80;73.98
85066;BME280;75401;52.588;13.224;2024-02-26T04:28:28;100171.97;;;3.80;73.95
85066;BME280;75401;52.588;13.224;2024-02-26T04:30:53;100168.34;;;3.81;73.82
85066;BME280;75401;52.588;13.224;2024-02-26T04:33:18;100161.25;;;3.82;73.88
85066;BME280;75401;52.588;13.224;2024-02-26T04:35:44;100171.69;;;3.83;74.01
85066;BME280;75401;52.588;13.224;2024-02-26T04:38:10;100178.69;;;3.85;74.48
85066;BME280;75401;52.588;13.224;2024-02-26T04:40:36;100178.69;;;3.85;74.84
85066;BME280;75401;52.588;13.224;2024-02-26T04:43:01;100176.63;;;3.88;74.36
85066;BME280;75401;52.588;13.224;2024-02-26T04:45:26;100191.44;;;3.91;73.94
85066;BME280;75401;52.588;13.224;2024-02-26T04:47:52;100181.66;;;3.91;74.31
85066;BME280;75401;52.588;13.224;2024-02-26T04:50:17;100185.16;;;3.92;74.17
85066;BME280;75401;52.588;13.224;2024-02-26T04:52:42;100186.00;;;3.92;73.98
85066;BME280;75401;52.588;13.224;2024-02-26T04:55:09;100177.09;;;3.93;74.14
85066;BME280;75401;52.588;13.224;2024-02-26T04:57:34;100187.69;;;3.93;73.95
85066;BME280;75401;52.588;13.224;2024-02-26T04:59:59;100191.16;;;3.94;74.22
85066;BME280;75401;52.588;13.224;2024-02-26T05:02:25;100189.50;;;3.93;74.19
85066;BME280;75401;52.588;13.224;2024-02-26T05:04:50;100194.78;;;3.93;74.03
85066;BME280;75401;52.588;13.224;2024-02-26T05:07:15;100190.34;;;3.93;74.10
85066;BME280;75401;52.588;13.224;2024-02-26T05:09:41;100194.78;;;3.93;73.38
85066;BME280;75401;52.588;13.224;2024-02-26T05:12:08;100200.91;;;3.93;73.76
85066;BME280;75401;52.588;13.224;2024-02-26T05:14:34;100201.16;;;3.90;73.90
85066;BME280;75401;52.588;13.224;2024-02-26T05:16:59;100212.31;;;3.94;73.72
85066;BME280;75401;52.588;13.224;2024-02-26T05:19:24;100210.66;;;3.93;73.81
85066;BME280;75401;52.588;13.224;2024-02-26T05:21:50;100215.09;;;3.92;73.87
85066;BME280;75401;52.588;13.224;2024-02-26T05:24:15;100212.44;;;3.92;73.92
85066;BME280;75401;52.588;13.224;2024-02-26T05:26:40;100209.81;;;3.92;73.91
85066;BME280;75401;52.588;13.224;2024-02-26T05:29:07;100215.22;;;3.91;73.71
85066;BME280;75401;52.588;13.224;2024-02-26T05:31:32;100212.59;;;3.91;73.88
85066;BME280;75401;52.588;13.224;2024-02-26T05:33:58;100215.47;;;3.88;73.75
85066;BME280;75401;52.588;13.224;2024-02-26T05:36:23;100220.63;;;3.89;73.77
85066;BME280;75401;52.588;13.224;2024-02-26T05:38:49;100227.63;;;3.90;73.87
85066;BME280;75401;52.588;13.224;2024-02-26T05:41:15;100223.41;;;3.88;73.84
85066;BME280;75401;52.588;13.224;2024-02-26T05:43:40;100227.00;;;3.87;73.72
85066;BME280;75401;52.588;13.224;2024-02-26T05:46:07;100227.13;;;3.85;74.05
85066;BME280;75401;52.588;13.224;2024-02-26T05:48:32;100222.94;;;3.83;73.66
85066;BME280;75401;52.588;13.224;2024-02-26T05:50:58;100220.28;;;3.83;73.39
85066;BME280;75401;52.588;13.224;2024-02-26T05:53:23;100230.88;;;3.83;73.64
85066;BME280;75401;52.588;13.224;2024-02-26T05:55:48;100229.19;;;3.81;73.72
85066;BME280;75401;52.588;13.224;2024-02-26T05:58:14;100233.63;;;3.81;74.17
85066;BME280;75401;52.588;13.224;2024-02-26T06:00:39;100237.47;;;3.77;74.17
85066;BME280;75401;52.588;13.224;2024-02-26T06:03:05;100242.06;;;3.75;73.90
85066;BME280;75401;52.588;13.224;2024-02-26T06:05:31;100246.63;;;3.73;74.40
85066;BME280;75401;52.588;13.224;2024-02-26T06:07:56;100249.00;;;3.76;74.46
85066;BME280;75401;52.588;13.224;2024-02-26T06:10:21;100252.41;;;3.78;74.49
85066;BME280;75401;52.588;13.224;2024-02-26T06:12:47;100248.19;;;3.75;75.12
85066;BME280;75401;52.588;13.224;2024-02-26T06:15:12;100250.84;;;3.75;74.90
85066;BME280;75401;52.588;13.224;2024-02-26T06:17:37;100253.22;;;3.78;74.72
85066;BME280;75401;52.588;13.224;2024-02-26T06:20:05;100252.13;;;3.81;74.97
85066;BME280;75401;52.588;13.224;2024-02-26T06:22:31;100255.53;;;3.83;74.87
85066;BME280;75401;52.588;13.224;2024-02-26T06:24:56;100247.59;;;3.83;74.17
85066;BME280;75401;52.588;13.224;2024-02-26T06:27:22;100252.97;;;3.81;75.21
85066;BME280;75401;52.588;13.224;2024-02-26T06:29:48;100255.53;;;3.83;75.43
85066;BME280;75401;52.588;13.224;2024-02-26T06:32:14;100262.25;;;3.87;75.16
85066;BME280;75401;52.588;13.224;2024-02-26T06:34:39;100252.50;;;3.88;75.30
85066;BME280;75401;52.588;13.224;2024-02-26T06:37:06;100262.72;;;3.92;75.29
85066;BME280;75401;52.588;13.224;2024-02-26T06:39:31;100264.16;;;3.96;74.88
85066;BME280;75401;52.588;13.224;2024-02-26T06:41:56;100261.97;;;4.01;74.84
85066;BME280;75401;52.588;13.224;2024-02-26T06:44:22;100265.13;;;4.06;74.93
85066;BME280;75401;52.588;13.224;2024-02-26T06:46:47;100280.50;;;4.12;74.59
85066;BME280;75401;52.588;13.224;2024-02-26T06:49:12;100275.81;;;4.16;75.57
85066;BME280;75401;52.588;13.224;2024-02-26T06:51:38;100279.91;;;4.20;75.65
85066;BME280;75401;52.588;13.224;2024-02-26T06:54:04;100275.22;;;4.23;75.84
85066;BME280;75401;52.588;13.224;2024-02-26T06:56:30;100286.97;;;4.30;75.25
85066;BME280;75401;52.588;13.224;2024-02-26T06:58:56;100271.72;;;4.34;75.77
85066;BME280;75401;52.588;13.224;2024-02-26T07:01:21;100283.47;;;4.41;75.28
85066;BME280;75401;52.588;13.224;2024-02-26T07:03:46;100288.28;;;4.47;75.38
85066;BME280;75401;52.588;13.224;2024-02-26T07:06:12;100289.84;;;4.50;75.25
85066;BME280;75401;52.588;13.224;2024-02-26T07:08:37;100298.13;;;4.56;75.21
85066;BME280;75401;52.588;13.224;2024-02-26T07:11:07;100293.44;;;4.60;74.76
85066;BME280;75401;52.588;13.224;2024-02-26T07:13:32;100298.22;;;4.66;74.78
85066;BME280;75401;52.588;13.224;2024-02-26T07:15:57;100299.66;;;4.70;74.25
85066;BME280;75401;52.588;13.224;2024-02-26T07:18:23;100301.09;;;4.74;74.57
85066;BME280;75401;52.588;13.224;2024-02-26T07:20:48;100311.44;;;4.77;74.33
85066;BME280;75401;52.588;13.224;2024-02-26T07:23:13;100307.69;;;4.79;75.11
85066;BME280;75401;52.588;13.224;2024-02-26T07:25:39;100310.66;;;4.86;75.25
85066;BME280;75401;52.588;13.224;2024-02-26T07:28:05;100298.88;;;4.90;74.96
85066;BME280;75401;52.588;13.224;2024-02-26T07:30:31;100309.94;;;4.95;75.29
85066;BME280;75401;52.588;13.224;2024-02-26T07:32:56;100303.28;;;5.00;74.85
85066;BME280;75401;52.588;13.224;2024-02-26T07:35:21;100305.41;;;5.06;74.78
85066;BME280;75401;52.588;13.224;2024-02-26T07:37:47;100308.41;;;5.13;74.84
85066;BME280;75401;52.588;13.224;2024-02-26T07:40:13;100306.22;;;5.18;75.28
85066;BME280;75401;52.588;13.224;2024-02-26T07:42:38;100302.31;;;5.22;75.88
85066;BME280;75401;52.588;13.224;2024-02-26T07:45:06;100304.09;;;5.33;76.11
85066;BME280;75401;52.588;13.224;2024-02-26T07:47:31;100297.03;;;5.43;76.05
85066;BME280;75401;52.588;13.224;2024-02-26T07:49:57;100305.91;;;5.53;76.86
85066;BME280;75401;52.588;13.224;2024-02-26T07:52:22;100303.19;;;5.64;76.86
85066;BME280;75401;52.588;13.224;2024-02-26T07:54:47;100280.97;;;5.65;77.06
85066;BME280;75401;52.588;13.224;2024-02-26T07:57:13;100285.31;;;5.87;76.96
85066;BME280;75401;52.588;13.224;2024-02-26T07:59:40;100298.53;;;6.07;76.77
85066;BME280;75401;52.588;13.224;2024-02-26T08:02:07;100292.16;;;6.19;77.04
85066;BME280;75401;52.588;13.224;2024-02-26T08:04:32;100294.28;;;6.35;76.15
85066;BME280;75401;52.588;13.224;2024-02-26T08:06:57;100295.16;;;6.45;75.68
85066;BME280;75401;52.588;13.224;2024-02-26T08:09:23;100291.41;;;6.57;75.62
85066;BME280;75401;52.588;13.224;2024-02-26T08:11:48;100299.97;;;6.70;75.44
85066;BME280;75401;52.588;13.224;2024-02-26T08:14:13;100290.19;;;6.80;75.15
85066;BME280;75401;52.588;13.224;2024-02-26T08:16:39;100275.34;;;6.78;74.84
85066;BME280;75401;52.588;13.224;2024-02-26T08:19:05;100300.56;;;7.03;74.46
85066;BME280;75401;52.588;13.224;2024-02-26T08:21:30;100308.66;;;7.11;74.41
85066;BME280;75401;52.588;13.224;2024-02-26T08:23:56;100306.84;;;7.21;74.13
85066;BME280;75401;52.588;13.224;2024-02-26T08:26:21;100313.44;;;7.26;73.95
85066;BME280;75401;52.588;13.224;2024-02-26T08:28:46;100313.41;;;7.36;73.18
85066;BME280;75401;52.588;13.224;2024-02-26T08:31:12;100311.59;;;7.46;73.12
85066;BME280;75401;52.588;13.224;2024-02-26T08:33:37;100310.59;;;7.56;73.38
85066;BME280;75401;52.588;13.224;2024-02-26T08:36:06;100317.72;;;7.66;72.92
85066;BME280;75401;52.588;13.224;2024-02-26T08:38:31;100314.47;;;7.72;72.08
85066;BME280;75401;52.588;13.224;2024-02-26T08:40:57;100301.59;;;7.77;72.00
85066;BME280;75401;52.588;13.224;2024-02-26T08:43:22;100309.41;;;7.88;72.48
85066;BME280;75401;52.588;13.224;2024-02-26T08:45:47;100310.19;;;7.98;71.16
85066;BME280;75401;52.588;13.224;2024-02-26T08:48:13;100306.53;;;8.08;70.98
85066;BME280;75401;52.588;13.224;2024-02-26T08:50:38;100291.63;;;8.15;71.50
85066;BME280;75401;52.588;13.224;2024-02-26T08:53:05;100298.34;;;8.29;71.04
85066;BME280;75401;52.588;13.224;2024-02-26T08:55:30;100299.97;;;8.40;71.22
85066;BME280;75401;52.588;13.224;2024-02-26T08:57:55;100286.34;;;8.43;71.10
85066;BME280;75401;52.588;13.224;2024-02-26T09:00:21;100287.25;;;8.51;70.68
85066;BME280;75401;52.588;13.224;2024-02-26T09:02:47;100299.94;;;8.67;69.62
85066;BME280;75401;52.588;13.224;2024-02-26T09:05:13;100262.69;;;8.57;69.56
85066;BME280;75401;52.588;13.224;2024-02-26T09:07:38;100290.28;;;8.83;69.19
85066;BME280;75401;52.588;13.224;2024-02-26T09:10:05;100271.34;;;8.87;69.28
85066;BME280;75401;52.588;13.224;2024-02-26T09:12:31;100286.03;;;9.08;68.91
85066;BME280;75401;52.588;13.224;2024-02-26T09:14:56;100291.44;;;9.16;68.01
85066;BME280;75401;52.588;13.224;2024-02-26T09:17:21;100299.06;;;9.29;68.14
85066;BME280;75401;52.588;13.224;2024-02-26T09:19:47;100295.13;;;9.41;67.79
85066;BME280;75401;52.588;13.224;2024-02-26T09:22:12;100297.03;;;9.48;66.82
85066;BME280;75401;52.588;13.224;2024-02-26T09:24:38;100251.75;;;9.39;67.35
85066;BME280;75401;52.588;13.224;2024-02-26T09:27:05;100301.25;;;9.77;68.03
85066;BME280;75401;52.588;13.224;2024-02-26T09:29:31;100299.47;;;9.85;66.54
85066;BME280;75401;52.588;13.224;2024-02-26T09:31:56;100305.38;;;9.97;66.57
85066;BME280;75401;52.588;13.224;2024-02-26T09:34:21;100312.22;;;9.99;65.77
85066;BME280;75401;52.588;13.224;2024-02-26T09:36:47;100312.06;;;10.19;65.78
85066;BME280;75401;52.588;13.224;2024-02-26T09:39:12;100306.25;;;10.31;65.40
85066;BME280;75401;52.588;13.224;2024-02-26T09:41:37;100310.63;;;10.40;65.20
85066;BME280;75401;52.588;13.224;2024-02-26T09:44:04;100307.00;;;10.49;64.88
85066;BME280;75401;52.588;13.224;2024-02-26T09:46:30;100307.69;;;10.51;64.92
85066;BME280;75401;52.588;13.224;2024-02-26T09:48:56;100314.72;;;10.52;65.73
85066;BME280;75401;52.588;13.224;2024-02-26T09:51:22;100312.38;;;10.65;65.08
85066;BME280;75401;52.588;13.224;2024-02-26T09:53:51;100308.56;;;10.76;63.79
85066;BME280;75401;52.588;13.224;2024-02-26T09:56:16;100299.59;;;10.85;64.46
85066;BME280;75401;52.588;13.224;2024-02-26T09:58:42;100303.59;;;10.89;64.23
85066;BME280;75401;52.588;13.224;2024-02-26T10:01:11;100310.13;;;10.95;62.73
85066;BME280;75401;52.588;13.224;2024-02-26T10:03:37;100310.16;;;11.03;63.12
85066;BME280;75401;52.588;13.224;2024-02-26T10:06:04;100289.91;;;11.00;62.87
85066;BME280;75401;52.588;13.224;2024-02-26T10:08:29;100311.34;;;11.16;62.69
85066;BME280;75401;52.588;13.224;2024-02-26T10:10:55;100312.69;;;11.28;63.17
85066;BME280;75401;52.588;13.224;2024-02-26T10:13:21;100316.56;;;11.34;63.31
85066;BME280;75401;52.588;13.224;2024-02-26T10:15:46;100305.16;;;11.40;62.63
85066;BME280;75401;52.588;13.224;2024-02-26T10:18:13;100315.38;;;11.53;62.16
85066;BME280;75401;52.588;13.224;2024-02-26T10:20:38;100313.72;;;11.52;62.34
85066;BME280;75401;52.588;13.224;2024-02-26T10:23:04;100313.72;;;11.60;62.64
85066;BME280;75401;52.588;13.224;2024-02-26T10:25:29;100321.09;;;11.74;62.43
85066;BME280;75401;52.588;13.224;2024-02-26T10:27:55;100308.34;;;11.76;60.46
85066;BME280;75401;52.588;13.224;2024-02-26T10:30:22;100317.03;;;11.86;61.79
85066;BME280;75401;52.588;13.224;2024-02-26T10:32:48;100324.75;;;11.97;61.13
85066;BME280;75401;52.588;13.224;2024-02-26T10:35:15;100315.50;;;12.16;60.26
85066;BME280;75401;52.588;13.224;2024-02-26T10:37:41;100312.41;;;12.27;59.75
85066;BME280;75401;52.588;13.224;2024-02-26T10:40:09;100318.06;;;12.40;59.99
85066;BME280;75401;52.588;13.224;2024-02-26T10:42:35;100318.88;;;12.48;58.75
85066;BME280;75401;52.588;13.224;2024-02-26T10:45:00;100318.50;;;12.59;59.24
85066;BME280;75401;52.588;13.224;2024-02-26T10:47:26;100314.06;;;12.75;58.92
85066;BME280;75401;52.588;13.224;2024-02-26T10:49:51;100320.72;;;12.87;58.09
85066;BME280;75401;52.588;13.224;2024-02-26T10:52:18;100310.69;;;13.03;57.53
85066;BME280;75401;52.588;13.224;2024-02-26T10:54:47;100314.41;;;13.10;57.64
85066;BME280;75401;52.588;13.224;2024-02-26T10:57:13;100309.97;;;13.17;57.42
85066;BME280;75401;52.588;13.224;2024-02-26T10:59:39;100309.94;;;13.26;57.01
85066;BME280;75401;52.588;13.224;2024-02-26T11:02:09;100304.41;;;13.19;57.62
85066;BME280;75401;52.588;13.224;2024-02-26T11:04:35;100304.31;;;13.35;56.68
85066;BME280;75401;52.588;13.224;2024-02-26T11:07:02;100306.78;;;13.37;57.34
85066;BME280;75401;52.588;13.224;2024-02-26T11:09:29;100307.09;;;13.42;56.85
85066;BME280;75401;52.588;13.224;2024-02-26T11:11:56;100302.78;;;13.55;56.47
85066;BME280;75401;52.588;13.224;2024-02-26T11:14:22;100301.53;;;13.66;56.85
85066;BME280;75401;52.588;13.224;2024-02-26T11:16:49;100300.59;;;13.73;56.02
85066;BME280;75401;52.588;13.224;2024-02-26T11:19:15;100302.94;;;13.76;56.03
85066;BME280;75401;52.588;13.224;2024-02-26T11:21:41;100309.44;;;13.82;55.74
85066;BME280;75401;52.588;13.224;2024-02-26T11:24:08;100303.97;;;13.90;54.53
85066;BME280;75401;52.588;13.224;2024-02-26T11:26:38;100302.03;;;13.99;55.00
85066;BME280;75401;52.588;13.224;2024-02-26T11:29:08;100308.41;;;13.98;53.62
85066;BME280;75401;52.588;13.224;2024-02-26T11:31:34;100313.78;;;13.98;53.07
85066;BME280;75401;52.588;13.224;2024-02-26T11:33:59;100314.91;;;13.88;53.00
85066;BME280;75401;52.588;13.224;2024-02-26T11:36:25;100306.56;;;13.98;54.83
85066;BME280;75401;52.588;13.224;2024-02-26T11:38:50;100316.78;;;14.03;53.81
85066;BME280;75401;52.588;13.224;2024-02-26T11:41:16;100309.00;;;14.08;54.08
85066;BME280;75401;52.588;13.224;2024-02-26T11:43:53;100315.84;;;13.96;52.67
85066;BME280;75401;52.588;13.224;2024-02-26T11:46:26;100306.78;;;14.11;52.73
85066;BME280;75401;52.588;13.224;2024-02-26T11:48:51;100316.16;;;14.15;53.69
85066;BME280;75401;52.588;13.224;2024-02-26T11:51:25;100305.69;;;14.20;51.65
85066;BME280;75401;52.588;13.224;2024-02-26T11:53:50;100280.44;;;14.07;53.50
85066;BME280;75401;52.588;13.224;2024-02-26T11:56:22;100301.31;;;14.34;51.31
85066;BME280;75401;52.588;13.224;2024-02-26T11:58:57;100305.13;;;14.39;51.55
85066;BME280;75401;52.588;13.224;2024-02-26T12:01:36;100298.53;;;14.42;50.35
85066;BME280;75401;52.588;13.224;2024-02-26T12:04:01;100304.84;;;14.49;51.65
85066;BME280;75401;52.588;13.224;2024-02-26T12:06:27;100304.47;;;14.52;51.16
85066;BME280;75401;52.588;13.224;2024-02-26T12:08:53;100316.16;;;14.59;50.53
85066;BME280;75401;52.588;13.224;2024-02-26T12:11:18;100309.94;;;14.59;50.49
85066;BME280;75401;52.588;13.224;2024-02-26T12:13:47;100307.00;;;14.54;51.37
85066;BME280;75401;52.588;13.224;2024-02-26T12:16:37;100306.13;;;14.68;50.98
85066;BME280;75401;52.588;13.224;2024-02-26T12:19:04;100302.41;;;14.54;48.77
85066;BME280;75401;52.588;13.224;2024-02-26T12:21:30;100305.09;;;14.69;50.05
85066;BME280;75401;52.588;13.224;2024-02-26T12:23:55;100304.75;;;14.57;47.83
85066;BME280;75401;52.588;13.224;2024-02-26T12:26:21;100307.34;;;14.65;48.49
85066;BME280;75401;52.588;13.224;2024-02-26T12:28:47;100301.19;;;14.71;47.83
85066;BME280;75401;52.588;13.224;2024-02-26T12:31:14;100302.00;;;14.86;49.44
85066;BME280;75401;52.588;13.224;2024-02-26T12:33:39;100302.91;;;14.93;49.15
85066;BME280;75401;52.588;13.224;2024-02-26T12:36:05;100304.19;;;14.97;48.18
85066;BME280;75401;52.588;13.224;2024-02-26T12:38:31;100303.91;;;15.07;48.34
85066;BME280;75401;52.588;13.224;2024-02-26T12:40:56;100310.50;;;15.04;48.57